Time,TemperatureF,DewpointF,PressureIn,WindDirection,WindDirectionDegrees,WindSpeedMPH,WindSpeedGustMPH,Humidity,HourlyPrecipIn,Conditions,Clouds,dailyrainin,SolarRadiationWatts/m^2,SoftwareType,DateUTC
2013-02-06 18:45:00,37.0,30.1,30.13,ENE,68,1.0,2.0,76,0.00,,,0.00,0,Wunderground v.1.15,2013-02-06 23:45:00,
2013-02-06 18:50:00,36.8,30.3,30.14,East,83,1.0,2.0,77,0.00,,,0.00,0,Wunderground v.1.15,2013-02-06 23:50:00,
2013-02-06 19:00:00,36.4,30.2,30.15,East,83,0.0,0.0,78,0.00,,,0.00,0,Wunderground v.1.15,2013-02-07 00:00:00,
2013-02-06 19:05:00,36.0,30.1,30.15,East,83,0.0,0.0,79,0.00,,,0.00,0,Wunderground v.1.15,2013-02-07 00:05:00,
2013-02-06 19:15:00,35.0,29.8,30.15,East,83,0.0,0.0,81,0.00,,,0.00,0,Wunderground v.1.15,2013-02-07 00:15:00,
2013-02-06 19:20:00,34.6,29.7,30.15,East,83,0.0,0.0,82,0.00,,,0.00,0,Wunderground v.1.15,2013-02-07 00:20:00,
2013-02-06 19:30:00,33.8,29.2,30.15,East,83,0.0,0.0,83,0.00,,,0.00,0,Wunderground v.1.15,2013-02-07 00:30:00,
2013-02-06 19:35:00,33.5,29.2,30.15,East,83,0.0,0.0,84,0.00,,,0.00,0,Wunderground v.1.15,2013-02-07 00:35:00,
2013-02-06 19:45:00,33.0,29.0,30.15,East,83,0.0,0.0,85,0.00,,,0.00,0,Wunderground v.1.15,2013-02-07 00:45:00,
2013-02-06 19:50:00,32.8,28.8,30.15,East,83,0.0,0.0,85,0.00,,,0.00,0,Wunderground v.1.15,2013-02-07 00:50:00,
2013-02-06 20:00:00,32.5,28.8,30.15,East,83,0.0,0.0,86,0.00,,,0.00,0,Wunderground v.1.15,2013-02-07 01:00:00,
2013-02-06 20:05:00,32.5,28.8,30.15,East,83,0.0,0.0,86,0.00,,,0.00,0,Wunderground v.1.15,2013-02-07 01:05:00,
2013-02-06 20:15:00,32.3,28.9,30.15,East,83,0.0,0.0,87,0.00,,,0.00,0,Wunderground v.1.15,2013-02-07 01:15:00,
2013-02-06 20:20:00,32.2,28.8,30.15,East,83,0.0,0.0,87,0.00,,,0.00,0,Wunderground v.1.15,2013-02-07 01:20:00,
2013-02-06 20:25:00,32.1,28.7,30.14,East,83,0.0,0.0,87,0.00,,,0.00,0,Wunderground v.1.15,2013-02-07 01:25:00,
2013-02-06 20:35:00,32.1,28.7,30.14,East,83,0.0,0.0,87,0.00,,,0.00,0,Wunderground v.1.15,2013-02-07 01:35:00,
2013-02-06 20:40:00,32.0,28.8,30.14,East,83,0.0,0.0,88,0.00,,,0.00,0,Wunderground v.1.15,2013-02-07 01:40:00,
2013-02-06 20:50:00,33.1,29.7,30.14,East,82,1.0,1.0,87,0.00,,,0.00,0,Wunderground v.1.15,2013-02-07 01:50:00,
2013-02-06 20:55:00,33.3,29.6,30.14,East,83,1.0,1.0,86,0.00,,,0.00,0,Wunderground v.1.15,2013-02-07 01:55:00,
2013-02-06 21:05:00,34.3,30.0,30.14,East,83,1.0,2.0,84,0.00,,,0.00,0,Wunderground v.1.15,2013-02-07 02:05:00,
2013-02-06 21:10:00,34.8,30.2,30.14,East,100,1.0,1.0,83,0.00,,,0.00,0,Wunderground v.1.15,2013-02-07 02:10:00,
2013-02-06 21:20:00,35.5,30.2,30.13,ESE,112,3.0,3.0,81,0.00,,,0.00,0,Wunderground v.1.15,2013-02-07 02:20:00,
2013-02-06 21:25:00,35.8,30.2,30.13,ESE,104,3.0,3.0,80,0.00,,,0.00,0,Wunderground v.1.15,2013-02-07 02:25:00,
2013-02-06 21:35:00,35.9,30.0,30.13,East,93,2.0,3.0,79,0.00,,,0.00,0,Wunderground v.1.15,2013-02-07 02:35:00,
2013-02-06 21:45:00,35.8,29.9,30.13,SE,125,2.0,6.0,79,0.00,,,0.00,0,Wunderground v.1.15,2013-02-07 02:45:00,
2013-02-06 21:50:00,35.9,30.0,30.13,ESE,112,3.0,3.0,79,0.00,,,0.00,0,Wunderground v.1.15,2013-02-07 02:50:00,
2013-02-06 21:55:00,35.8,29.9,30.14,ESE,120,3.0,4.0,79,0.00,,,0.00,0,Wunderground v.1.15,2013-02-07 02:55:00,
2013-02-06 22:05:00,35.7,29.8,30.13,ESE,108,4.0,5.0,79,0.00,,,0.00,0,Wunderground v.1.15,2013-02-07 03:05:00,
2013-02-06 22:10:00,35.7,29.8,30.13,ESE,105,4.0,4.0,79,0.00,,,0.00,0,Wunderground v.1.15,2013-02-07 03:10:00,
2013-02-06 22:20:00,35.6,29.7,30.14,SE,131,3.0,4.0,79,0.00,,,0.00,0,Wunderground v.1.15,2013-02-07 03:20:00,
2013-02-06 22:25:00,35.6,29.7,30.14,East,91,3.0,5.0,79,0.00,,,0.00,0,Wunderground v.1.15,2013-02-07 03:25:00,
2013-02-06 22:35:00,35.6,29.7,30.13,ESE,112,3.0,7.0,79,0.00,,,0.00,0,Wunderground v.1.15,2013-02-07 03:35:00,
2013-02-06 22:40:00,35.5,29.6,30.13,ESE,116,3.0,3.0,79,0.00,,,0.00,0,Wunderground v.1.15,2013-02-07 03:40:00,
2013-02-06 22:50:00,35.5,29.9,30.13,SE,124,2.0,3.0,80,0.00,,,0.00,0,Wunderground v.1.15,2013-02-07 03:50:00,
2013-02-06 22:55:00,35.4,29.8,30.13,ESE,106,2.0,3.0,80,0.00,,,0.00,0,Wunderground v.1.15,2013-02-07 03:55:00,
2013-02-06 23:00:00,35.3,29.7,30.14,ESE,110,2.0,2.0,80,0.00,,,0.00,0,Wunderground v.1.15,2013-02-07 04:00:00,
2013-02-06 23:10:00,35.3,29.7,30.13,ENE,74,2.0,2.0,80,0.00,,,0.00,0,Wunderground v.1.15,2013-02-07 04:10:00,
2013-02-06 23:15:00,35.3,29.7,30.12,East,91,2.0,2.0,80,0.00,,,0.00,0,Wunderground v.1.15,2013-02-07 04:15:00,
2013-02-06 23:25:00,35.3,29.7,30.13,ESE,114,1.0,2.0,80,0.00,,,0.00,0,Wunderground v.1.15,2013-02-07 04:25:00,
2013-02-06 23:30:00,35.3,29.7,30.12,East,95,1.0,1.0,80,0.00,,,0.00,0,Wunderground v.1.15,2013-02-07 04:30:00,
2013-02-06 23:40:00,35.3,29.7,30.12,East,87,2.0,5.0,80,0.00,,,0.00,0,Wunderground v.1.15,2013-02-07 04:40:00,
2013-02-06 23:45:00,35.3,29.7,30.12,ESE,117,2.0,5.0,80,0.00,,,0.00,0,Wunderground v.1.15,2013-02-07 04:45:00,
2013-02-06 23:50:00,35.4,29.8,30.12,East,88,2.0,2.0,80,0.00,,,0.00,0,Wunderground v.1.15,2013-02-07 04:50:00,